createdAt,value
2023-02-25T00:00:36.249Z,4.30
2023-02-25T00:03:03.613Z,3.60
2023-02-25T00:05:31.903Z,3.53
2023-02-25T00:07:59.764Z,2.87
2023-02-25T00:10:27.237Z,3.97
2023-02-25T00:12:54.839Z,3.13
2023-02-25T00:15:22.792Z,3.90
2023-02-25T00:17:50.151Z,2.17
2023-02-25T00:20:22.473Z,2.80
2023-02-25T00:22:50.202Z,4.13
2023-02-25T00:25:17.515Z,5.77
2023-02-25T00:27:44.898Z,3.57
2023-02-25T00:30:12.969Z,3.00
2023-02-25T00:32:40.735Z,3.07
2023-02-25T00:35:12.624Z,2.97
2023-02-25T00:37:40.015Z,2.17
2023-02-25T00:40:14.971Z,4.67
2023-02-25T00:42:42.802Z,3.83
2023-02-25T00:45:10.510Z,4.53
2023-02-25T00:47:38.274Z,4.53
2023-02-25T00:50:09.177Z,3.30
2023-02-25T00:52:37.669Z,3.20
2023-02-25T00:55:06.491Z,4.63
2023-02-25T00:57:33.923Z,3.83
2023-02-25T01:00:01.354Z,4.33
2023-02-25T01:02:30.020Z,3.53
2023-02-25T01:04:58.921Z,3.57
2023-02-25T01:07:26.271Z,2.87
2023-02-25T01:09:57.839Z,4.17
2023-02-25T01:12:25.132Z,2.83
2023-02-25T01:14:55.996Z,3.93
2023-02-25T01:17:23.301Z,2.73
2023-02-25T01:19:50.630Z,3.57
2023-02-25T01:22:17.963Z,2.80
2023-02-25T01:24:45.397Z,4.07
2023-02-25T01:27:14.107Z,4.33
2023-02-25T01:29:44.018Z,4.07
2023-02-25T01:32:14.230Z,3.37
2023-02-25T01:34:41.664Z,2.00
2023-02-25T01:37:09.340Z,2.87
2023-02-25T01:39:40.387Z,4.47
2023-02-25T01:42:13.723Z,4.17
2023-02-25T01:45:00.333Z,3.53
2023-02-25T01:47:30.162Z,3.70
2023-02-25T01:49:57.650Z,3.47
2023-02-25T01:52:26.172Z,3.53
2023-02-25T01:54:56.453Z,3.40
2023-02-25T01:57:24.070Z,2.60
2023-02-25T01:59:54.335Z,2.80
2023-02-25T02:02:22.682Z,3.90
2023-02-25T02:04:51.857Z,3.57
2023-02-25T02:07:24.875Z,4.47
2023-02-25T02:09:58.623Z,3.73
2023-02-25T02:12:28.337Z,3.47
2023-02-25T02:14:57.013Z,3.27
2023-02-25T02:17:33.227Z,2.03
2023-02-25T02:20:10.033Z,2.70
2023-02-25T02:22:46.862Z,3.60
2023-02-25T02:25:14.630Z,2.67
2023-02-25T02:27:45.078Z,2.30
2023-02-25T02:30:23.274Z,3.40
2023-02-25T02:33:02.511Z,3.60
2023-02-25T02:35:48.673Z,2.83
2023-02-25T02:38:26.388Z,2.40
2023-02-25T02:41:12.553Z,3.20
2023-02-25T02:44:07.298Z,2.67
2023-02-25T02:46:36.412Z,2.90
2023-02-25T02:49:25.457Z,3.27
2023-02-25T02:51:57.262Z,2.97
2023-02-25T02:54:25.988Z,2.10
2023-02-25T02:56:54.742Z,3.87
2023-02-25T02:59:31.052Z,2.77
2023-02-25T03:02:00.488Z,2.67
2023-02-25T03:04:30.340Z,3.27
2023-02-25T03:07:56.234Z,3.20
2023-02-25T03:10:24.090Z,3.20
2023-02-25T03:12:51.472Z,2.77
2023-02-25T03:15:20.862Z,5.33
2023-02-25T03:17:53.205Z,2.53
2023-02-25T03:20:25.609Z,3.07
2023-02-25T03:22:54.910Z,2.40
2023-02-25T03:25:33.617Z,2.90
2023-02-25T03:28:04.091Z,2.60
2023-02-25T03:30:38.352Z,3.77
2023-02-25T03:33:14.727Z,3.00
2023-02-25T03:35:43.331Z,2.27
2023-02-25T03:38:13.337Z,2.23
2023-02-25T03:40:41.269Z,2.03
2023-02-25T03:43:11.705Z,2.13
2023-02-25T03:45:40.723Z,2.63
2023-02-25T03:48:09.282Z,2.50
2023-02-25T03:50:41.329Z,2.70
2023-02-25T03:53:10.860Z,2.00
2023-02-25T03:55:50.395Z,1.47
2023-02-25T03:58:17.762Z,2.53
2023-02-25T04:00:46.751Z,2.47
2023-02-25T04:03:14.261Z,2.07
2023-02-25T04:05:41.723Z,1.70
2023-02-25T04:08:15.783Z,2.37
2023-02-25T04:10:44.254Z,2.27
2023-02-25T04:13:12.725Z,2.20
2023-02-25T04:15:40.243Z,2.37
2023-02-25T04:18:07.680Z,2.57
2023-02-25T04:20:35.927Z,2.93
2023-02-25T04:23:03.435Z,2.10
2023-02-25T04:25:30.941Z,3.33
2023-02-25T04:27:58.274Z,2.30
2023-02-25T04:30:25.635Z,2.50
2023-02-25T04:32:53.060Z,2.23
2023-02-25T04:35:20.411Z,1.80
2023-02-25T04:37:47.823Z,2.67
2023-02-25T04:40:16.497Z,2.07
2023-02-25T04:42:43.848Z,2.53
2023-02-25T04:45:12.165Z,1.53
2023-02-25T04:47:39.452Z,2.13
2023-02-25T04:50:08.412Z,1.47
2023-02-25T04:52:36.021Z,2.10
2023-02-25T04:55:03.678Z,1.37
2023-02-25T04:57:31.215Z,1.60
2023-02-25T04:59:58.531Z,1.40
2023-02-25T05:02:25.864Z,2.70
2023-02-25T05:04:53.302Z,1.80
2023-02-25T05:07:20.626Z,2.37
2023-02-25T05:09:48.170Z,1.80
2023-02-25T05:12:15.477Z,2.80
2023-02-25T05:14:42.925Z,2.27
2023-02-25T05:17:10.259Z,2.07
2023-02-25T05:19:37.613Z,2.60
2023-02-25T05:22:04.919Z,2.20
2023-02-25T05:24:32.450Z,1.80
2023-02-25T05:27:08.407Z,2.00
2023-02-25T05:29:36.471Z,2.63
2023-02-25T05:32:04.004Z,1.73
2023-02-25T05:34:31.554Z,2.67
2023-02-25T05:36:58.867Z,1.80
2023-02-25T05:39:26.536Z,2.00
2023-02-25T05:41:54.793Z,1.80
2023-02-25T05:44:22.204Z,2.47
2023-02-25T05:46:49.573Z,2.10
2023-02-25T05:49:16.967Z,2.20
2023-02-25T05:51:44.272Z,2.97
2023-02-25T05:54:11.688Z,2.60
2023-02-25T05:56:38.994Z,3.70
2023-02-25T05:59:07.472Z,1.50
2023-02-25T06:01:35.246Z,2.80
2023-02-25T06:04:02.856Z,3.55
2023-02-25T06:06:31.813Z,2.40
2023-02-25T06:08:59.252Z,2.97
2023-02-25T06:11:27.906Z,3.63
2023-02-25T06:13:55.702Z,2.47
2023-02-25T06:16:24.787Z,3.00
2023-02-25T06:18:52.409Z,2.57
2023-02-25T06:21:20.168Z,2.57
2023-02-25T06:23:50.162Z,3.43
2023-02-25T06:26:18.071Z,2.50
2023-02-25T06:28:45.646Z,3.23
2023-02-25T06:31:14.706Z,2.87
2023-02-25T06:33:42.143Z,3.17
2023-02-25T06:36:09.701Z,3.40
2023-02-25T06:38:37.320Z,3.77
2023-02-25T06:41:09.005Z,4.73
2023-02-25T06:43:36.753Z,3.47
2023-02-25T06:46:05.308Z,4.40
2023-02-25T06:48:32.908Z,2.87
2023-02-25T06:51:00.736Z,3.30
2023-02-25T06:53:28.429Z,2.93
2023-02-25T06:55:56.217Z,3.07
2023-02-25T06:58:23.578Z,5.03
2023-02-25T07:00:51.013Z,2.63
2023-02-25T07:03:18.417Z,2.83
2023-02-25T07:05:45.852Z,2.50
2023-02-25T07:08:13.310Z,3.67
2023-02-25T07:10:41.727Z,4.37
2023-02-25T07:13:11.985Z,2.40
2023-02-25T07:15:39.449Z,2.60
2023-02-25T07:18:06.908Z,3.13
2023-02-25T07:20:34.440Z,2.07
2023-02-25T07:23:04.898Z,2.23
2023-02-25T07:25:32.459Z,2.00
2023-02-25T07:27:59.893Z,2.40
2023-02-25T07:30:27.279Z,2.50
2023-02-25T07:32:54.743Z,1.60
2023-02-25T07:35:22.148Z,2.10
2023-02-25T07:37:49.568Z,1.60
2023-02-25T07:40:17.220Z,1.63
2023-02-25T07:42:44.593Z,1.80
2023-02-25T07:45:12.968Z,1.60
2023-02-25T07:47:40.341Z,1.80
2023-02-25T07:50:10.869Z,2.23
2023-02-25T07:52:40.096Z,1.67
2023-02-25T07:55:07.795Z,3.50
2023-02-25T07:57:35.766Z,1.50
2023-02-25T08:00:05.026Z,1.83
2023-02-25T08:02:40.315Z,2.60
2023-02-25T08:05:08.129Z,2.30
2023-02-25T08:07:35.631Z,1.77
2023-02-25T08:10:03.047Z,1.80
2023-02-25T08:12:30.603Z,1.20
2023-02-25T08:15:01.790Z,1.37
2023-02-25T08:17:32.519Z,1.80
2023-02-25T08:19:59.996Z,1.83
2023-02-25T08:22:27.404Z,1.70
2023-02-25T08:24:54.814Z,2.07
2023-02-25T08:27:22.208Z,2.47
2023-02-25T08:29:49.803Z,1.70
2023-02-25T08:32:17.355Z,1.40
2023-02-25T08:34:47.783Z,3.27
2023-02-25T08:37:16.125Z,1.80
2023-02-25T08:39:43.682Z,1.87
2023-02-25T08:42:18.746Z,2.30
2023-02-25T08:44:46.211Z,1.20
2023-02-25T08:47:14.057Z,1.60
2023-02-25T08:49:41.539Z,1.07
2023-02-25T08:52:11.910Z,1.80
2023-02-25T08:54:39.859Z,1.50
2023-02-25T08:57:07.258Z,1.30
2023-02-25T08:59:35.953Z,1.60
2023-02-25T09:02:06.217Z,1.40
2023-02-25T09:04:34.733Z,1.73
2023-02-25T09:07:02.445Z,2.00
2023-02-25T09:09:30.183Z,2.33
2023-02-25T09:11:57.611Z,2.47
2023-02-25T09:14:24.955Z,2.43
2023-02-25T09:16:52.445Z,2.77
2023-02-25T09:19:20.751Z,2.40
2023-02-25T09:21:48.532Z,2.43
2023-02-25T09:24:16.431Z,2.47
2023-02-25T09:26:43.794Z,2.63
2023-02-25T09:29:11.235Z,2.83
2023-02-25T09:31:39.744Z,2.13
2023-02-25T09:34:09.933Z,1.13
2023-02-25T09:36:37.675Z,1.43
2023-02-25T09:39:10.152Z,1.13
2023-02-25T09:41:37.839Z,1.70
2023-02-25T09:44:14.401Z,1.97
2023-02-25T09:46:46.169Z,1.70
2023-02-25T09:49:20.790Z,1.27
2023-02-25T09:51:51.821Z,1.50
2023-02-25T09:54:23.042Z,1.73
2023-02-25T09:56:51.086Z,2.77
2023-02-25T09:59:24.427Z,3.67
2023-02-25T10:01:57.496Z,2.20
2023-02-25T10:04:30.812Z,2.40
2023-02-25T10:07:02.144Z,1.53
2023-02-25T10:09:34.043Z,1.60
2023-02-25T10:12:01.451Z,1.93
2023-02-25T10:14:41.055Z,2.00
2023-02-25T10:17:17.701Z,2.00
2023-02-25T10:19:45.189Z,1.53
2023-02-25T10:22:24.882Z,2.07
2023-02-25T10:24:59.372Z,1.97
2023-02-25T10:27:33.191Z,2.27
2023-02-25T10:30:04.475Z,2.00
2023-02-25T10:32:36.731Z,1.80
2023-02-25T10:35:25.765Z,1.97
2023-02-25T10:37:53.591Z,1.63
2023-02-25T10:40:22.556Z,1.40
2023-02-25T10:42:51.394Z,1.63
2023-02-25T10:45:26.749Z,1.93
2023-02-25T10:48:17.717Z,1.50
2023-02-25T10:51:02.985Z,1.63
2023-02-25T10:53:31.029Z,1.40
2023-02-25T10:55:59.691Z,1.63
2023-02-25T10:58:27.328Z,1.00
2023-02-25T11:01:04.766Z,2.43
2023-02-25T11:03:34.298Z,1.67
2023-02-25T11:06:09.930Z,1.67
2023-02-25T11:08:37.903Z,1.57
2023-02-25T11:11:05.481Z,1.87
2023-02-25T11:13:37.208Z,1.50
2023-02-25T11:16:07.435Z,1.50
2023-02-25T11:18:35.250Z,1.60
2023-02-25T11:21:07.867Z,1.80
2023-02-25T11:23:37.175Z,1.97
2023-02-25T11:26:06.819Z,1.53
2023-02-25T11:28:44.377Z,1.17
2023-02-25T11:31:23.181Z,0.80
2023-02-25T11:33:57.344Z,0.93
2023-02-25T11:36:26.145Z,0.80
2023-02-25T11:39:05.125Z,1.37
2023-02-25T11:41:32.672Z,1.00
2023-02-25T11:44:11.383Z,1.33
2023-02-25T11:46:39.835Z,1.30
2023-02-25T11:49:11.231Z,0.80
2023-02-25T11:51:54.826Z,1.23
2023-02-25T11:54:36.291Z,0.90
2023-02-25T11:57:13.113Z,0.73
2023-02-25T11:59:44.902Z,1.13
2023-02-25T12:02:12.295Z,1.30
2023-02-25T12:04:58.732Z,1.50
2023-02-25T12:07:51.428Z,1.80
2023-02-25T12:10:30.602Z,1.83
2023-02-25T12:13:07.219Z,1.10
2023-02-25T12:15:50.057Z,1.27
2023-02-25T12:18:23.635Z,1.00
2023-02-25T12:21:09.893Z,1.07
2023-02-25T12:23:52.632Z,1.27
2023-02-25T12:26:35.332Z,1.30
2023-02-25T12:29:21.621Z,1.07
2023-02-25T12:32:05.375Z,1.17
2023-02-25T12:34:56.644Z,1.20
2023-02-25T12:37:24.041Z,1.20
2023-02-25T12:39:54.534Z,0.90
2023-02-25T12:42:28.277Z,0.90
2023-02-25T12:44:55.627Z,1.00
2023-02-25T12:47:42.553Z,1.37
2023-02-25T12:50:29.338Z,0.63
2023-02-25T12:53:17.026Z,1.10
2023-02-25T12:56:03.476Z,1.20
2023-02-25T12:58:49.141Z,1.37
2023-02-25T13:01:44.009Z,1.30
2023-02-25T13:04:21.316Z,1.07
2023-02-25T13:06:59.020Z,2.17
2023-02-25T13:09:27.413Z,1.37
2023-02-25T13:12:11.385Z,1.10
2023-02-25T13:14:54.762Z,1.30
2023-02-25T13:17:30.308Z,1.53
2023-02-25T13:20:16.838Z,1.77
2023-02-25T13:22:54.422Z,1.23
2023-02-25T13:25:40.487Z,0.80
2023-02-25T13:28:15.733Z,0.83
2023-02-25T13:30:50.122Z,1.20
2023-02-25T13:33:46.165Z,1.00
2023-02-25T13:36:13.662Z,1.27
2023-02-25T13:39:00.028Z,1.50
2023-02-25T13:41:32.202Z,1.30
2023-02-25T13:44:18.549Z,1.40
2023-02-25T13:46:58.375Z,1.30
2023-02-25T13:49:34.930Z,1.47
2023-02-25T13:52:21.123Z,1.37
2023-02-25T13:55:07.119Z,1.00
2023-02-25T13:58:13.883Z,1.10
2023-02-25T14:01:04.245Z,1.10
2023-02-25T14:03:50.520Z,1.53
2023-02-25T14:06:30.340Z,1.50
2023-02-25T14:09:06.667Z,1.47
2023-02-25T14:11:37.704Z,1.27
2023-02-25T14:14:20.279Z,1.20
2023-02-25T14:17:06.059Z,0.93
2023-02-25T14:19:51.920Z,1.33
2023-02-25T14:22:30.907Z,0.97
2023-02-25T14:25:17.027Z,1.00
2023-02-25T14:28:05.971Z,1.37
2023-02-25T14:30:42.802Z,1.27
2023-02-25T14:33:22.615Z,0.90
2023-02-25T14:35:56.082Z,1.30
2023-02-25T14:38:35.931Z,1.57
2023-02-25T14:41:23.804Z,1.70
2023-02-25T14:43:53.777Z,1.20
2023-02-25T14:46:30.258Z,1.07
2023-02-25T14:49:03.503Z,1.03
2023-02-25T14:51:30.973Z,1.43
2023-02-25T14:54:11.090Z,1.20
2023-02-25T14:56:57.425Z,1.80
2023-02-25T14:59:24.768Z,1.73
2023-02-25T15:02:11.055Z,1.60
2023-02-25T15:04:56.176Z,1.00
2023-02-25T15:07:33.170Z,1.90
2023-02-25T15:10:16.350Z,1.60
2023-02-25T15:12:47.068Z,2.27
2023-02-25T15:15:33.251Z,1.80
2023-02-25T15:18:10.070Z,1.20
2023-02-25T15:20:41.123Z,1.40
2023-02-25T15:23:10.110Z,1.47
2023-02-25T15:25:38.243Z,2.13
2023-02-25T15:28:24.375Z,1.40
2023-02-25T15:31:01.888Z,1.83
2023-02-25T15:33:40.319Z,1.47
2023-02-25T15:36:20.120Z,1.30
2023-02-25T15:38:57.244Z,1.67
2023-02-25T15:41:27.850Z,2.60
2023-02-25T15:43:59.061Z,1.60
2023-02-25T15:46:38.679Z,1.57
2023-02-25T15:49:16.618Z,1.87
2023-02-25T15:51:51.560Z,1.50
2023-02-25T15:54:28.565Z,1.93
2023-02-25T15:57:01.244Z,1.80
2023-02-25T15:59:45.958Z,1.73
2023-02-25T16:02:33.478Z,1.93
2023-02-25T16:05:11.824Z,1.60
2023-02-25T16:07:40.941Z,1.83
2023-02-25T16:10:28.582Z,2.53
2023-02-25T16:12:57.743Z,1.73
2023-02-25T16:15:31.293Z,1.90
2023-02-25T16:18:00.312Z,1.93
2023-02-25T16:20:30.706Z,2.50
2023-02-25T16:22:59.590Z,2.03
2023-02-25T16:25:42.948Z,1.50
2023-02-25T16:28:26.994Z,1.50
2023-02-25T16:31:02.261Z,1.90
2023-02-25T16:33:35.507Z,1.63
2023-02-25T16:36:07.849Z,1.67
2023-02-25T16:38:38.412Z,2.27
2023-02-25T16:41:06.066Z,2.00
2023-02-25T16:43:36.479Z,1.90
2023-02-25T16:46:05.287Z,2.20
2023-02-25T16:48:32.794Z,1.97
2023-02-25T16:51:24.278Z,2.00
2023-02-25T16:54:01.165Z,2.13
2023-02-25T16:56:29.593Z,2.10
2023-02-25T16:59:00.167Z,2.43
2023-02-25T17:01:29.024Z,2.30
2023-02-25T17:04:16.721Z,2.30
2023-02-25T17:06:44.182Z,2.10
2023-02-25T17:09:24.945Z,2.10
2023-02-25T17:11:55.342Z,2.10
2023-02-25T17:14:23.317Z,2.53
2023-02-25T17:16:50.931Z,2.87
2023-02-25T17:19:20.511Z,2.00
2023-02-25T17:21:52.203Z,2.13
2023-02-25T17:24:21.726Z,2.83
2023-02-25T17:26:50.208Z,2.13
2023-02-25T17:29:18.706Z,2.47
2023-02-25T17:31:54.027Z,3.47
2023-02-25T17:34:33.002Z,3.20
2023-02-25T17:37:04.070Z,3.47
2023-02-25T17:39:31.777Z,3.63
2023-02-25T17:41:59.334Z,4.03
2023-02-25T17:44:42.599Z,3.73
2023-02-25T17:47:11.520Z,5.73
2023-02-25T17:49:39.594Z,6.33
2023-02-25T17:52:08.537Z,6.80
2023-02-25T17:54:37.576Z,4.40
2023-02-25T17:57:11.218Z,5.10
2023-02-25T17:59:39.875Z,3.80
2023-02-25T18:02:26.212Z,3.60
2023-02-25T18:05:08.601Z,3.67
2023-02-25T18:07:37.916Z,4.77
2023-02-25T18:10:06.712Z,3.63
2023-02-25T18:12:35.549Z,3.63
2023-02-25T18:15:04.095Z,3.60
2023-02-25T18:17:35.378Z,3.03
2023-02-25T18:20:04.891Z,3.53
2023-02-25T18:22:38.687Z,3.07
2023-02-25T18:25:07.820Z,3.50
2023-02-25T18:27:37.688Z,3.30
2023-02-25T18:30:19.438Z,3.37
2023-02-25T18:32:47.304Z,3.67
2023-02-25T18:35:15.289Z,3.37
2023-02-25T18:37:43.916Z,3.97
2023-02-25T18:40:20.873Z,3.10
2023-02-25T18:42:48.539Z,2.90
2023-02-25T18:45:17.283Z,3.90
2023-02-25T18:47:44.639Z,4.27
2023-02-25T18:50:12.185Z,4.27
2023-02-25T18:52:40.162Z,3.40
2023-02-25T18:55:09.099Z,4.70
2023-02-25T18:57:36.444Z,2.93
2023-02-25T19:00:04.240Z,2.93
2023-02-25T19:02:35.719Z,3.63
2023-02-25T19:05:04.061Z,2.73
2023-02-25T19:07:33.465Z,3.57
2023-02-25T19:10:01.101Z,2.57
2023-02-25T19:12:29.577Z,2.03
2023-02-25T19:15:07.118Z,2.40
2023-02-25T19:17:34.986Z,2.23
2023-02-25T19:20:02.832Z,2.30
2023-02-25T19:22:30.114Z,2.23
2023-02-25T19:24:57.821Z,1.67
2023-02-25T19:27:27.365Z,2.30
2023-02-25T19:29:56.372Z,3.93
2023-02-25T19:32:24.613Z,3.00
2023-02-25T19:34:52.071Z,2.73
2023-02-25T19:37:20.732Z,2.70
2023-02-25T19:39:48.348Z,2.63
2023-02-25T19:42:15.740Z,3.33
2023-02-25T19:44:43.213Z,3.10
2023-02-25T19:47:10.704Z,2.47
2023-02-25T19:49:38.098Z,2.00
2023-02-25T19:52:05.640Z,2.13
2023-02-25T19:54:32.955Z,2.50
2023-02-25T19:57:00.270Z,2.07
2023-02-25T19:59:29.999Z,1.87
2023-02-25T20:01:57.472Z,1.63
2023-02-25T20:04:25.050Z,1.30
2023-02-25T20:06:52.754Z,2.10
2023-02-25T20:09:20.111Z,1.70
2023-02-25T20:11:48.771Z,1.70
2023-02-25T20:14:17.358Z,3.10
2023-02-25T20:16:44.726Z,3.30
2023-02-25T20:19:12.144Z,2.67
2023-02-25T20:21:40.023Z,3.40
2023-02-25T20:24:07.761Z,2.40
2023-02-25T20:26:35.332Z,2.93
2023-02-25T20:29:02.700Z,2.70
2023-02-25T20:31:30.441Z,2.37
2023-02-25T20:33:59.080Z,2.87
2023-02-25T20:36:27.037Z,2.20
2023-02-25T20:38:54.669Z,3.07
2023-02-25T20:41:22.588Z,2.90
2023-02-25T20:43:49.980Z,3.77
2023-02-25T20:46:28.505Z,2.70
2023-02-25T20:48:56.636Z,2.47
2023-02-25T20:51:24.084Z,2.40
2023-02-25T20:53:51.523Z,3.50
2023-02-25T20:56:21.928Z,3.10
2023-02-25T20:58:49.608Z,3.43
2023-02-25T21:01:16.994Z,3.87
2023-02-25T21:03:44.322Z,3.53
2023-02-25T21:06:15.354Z,2.57
2023-02-25T21:08:42.966Z,3.10
2023-02-25T21:11:10.500Z,3.20
2023-02-25T21:13:37.934Z,2.60
2023-02-25T21:16:06.695Z,3.63
2023-02-25T21:18:34.538Z,4.33
2023-02-25T21:21:03.223Z,3.33
2023-02-25T21:23:31.195Z,2.93
2023-02-25T21:25:58.857Z,3.50
2023-02-25T21:28:26.705Z,2.53
2023-02-25T21:31:00.217Z,2.77
2023-02-25T21:33:27.763Z,2.87
2023-02-25T21:35:55.768Z,2.10
2023-02-25T21:38:23.712Z,2.50
2023-02-25T21:40:51.420Z,2.50
2023-02-25T21:43:19.025Z,2.60
2023-02-25T21:45:57.020Z,2.93
2023-02-25T21:48:25.728Z,2.53
2023-02-25T21:50:53.107Z,2.90
2023-02-25T21:53:21.790Z,2.67
2023-02-25T21:55:49.330Z,2.30
2023-02-25T21:58:16.653Z,2.92
2023-02-25T22:00:43.986Z,2.63
2023-02-25T22:03:11.317Z,3.17
2023-02-25T22:05:39.276Z,2.93
2023-02-25T22:08:06.860Z,2.53
2023-02-25T22:10:35.342Z,2.87
2023-02-25T22:13:03.101Z,2.30
2023-02-25T22:15:30.825Z,3.17
2023-02-25T22:17:58.393Z,2.53
2023-02-25T22:20:26.122Z,2.90
2023-02-25T22:22:53.432Z,3.70
2023-02-25T22:25:20.794Z,2.80
2023-02-25T22:27:48.064Z,2.27
2023-02-25T22:30:15.428Z,2.67
2023-02-25T22:32:43.141Z,2.97
2023-02-25T22:35:10.594Z,2.63
2023-02-25T22:37:38.202Z,3.10
2023-02-25T22:40:05.728Z,3.07
2023-02-25T22:42:33.186Z,2.97
2023-02-25T22:45:01.210Z,3.33
2023-02-25T22:47:28.570Z,2.73
2023-02-25T22:49:56.383Z,4.17
2023-02-25T22:52:23.772Z,2.97
2023-02-25T22:54:51.095Z,3.10
2023-02-25T22:57:18.476Z,2.93
2023-02-25T22:59:48.285Z,2.90
2023-02-25T23:02:16.484Z,4.80
2023-02-25T23:04:44.676Z,2.53
2023-02-25T23:07:13.215Z,2.57
2023-02-25T23:09:41.633Z,3.33
2023-02-25T23:12:09.008Z,3.27
2023-02-25T23:14:36.369Z,3.30
2023-02-25T23:17:04.477Z,3.50
2023-02-25T23:19:31.798Z,2.50
2023-02-25T23:21:59.117Z,3.73
2023-02-25T23:24:26.694Z,2.70
2023-02-25T23:26:54.269Z,3.43
2023-02-25T23:29:22.099Z,3.10
2023-02-25T23:31:49.878Z,2.37
2023-02-25T23:34:25.184Z,4.47
2023-02-25T23:36:55.651Z,2.77
2023-02-25T23:39:23.369Z,2.53
2023-02-25T23:41:50.700Z,3.47
2023-02-25T23:44:18.070Z,3.30
2023-02-25T23:46:45.576Z,3.30
2023-02-25T23:49:14.360Z,3.43
2023-02-25T23:51:45.671Z,2.73
2023-02-25T23:54:14.933Z,2.40
2023-02-25T23:56:42.295Z,2.40
2023-02-25T23:59:10.922Z,2.27
